sensor_id;sensor_type;location;lat;lon;timestamp;P1;durP1;ratioP1;P2;durP2;ratioP2
68800;SDS011;55784;50.734;7.086;2022-12-28T00:01:08;7.28;;;1.40;;
68800;SDS011;55784;50.734;7.086;2022-12-28T00:03:37;7.55;;;1.50;;
68800;SDS011;55784;50.734;7.086;2022-12-28T00:06:03;6.07;;;1.27;;
68800;SDS011;55784;50.734;7.086;2022-12-28T00:08:30;5.50;;;1.30;;
68800;SDS011;55784;50.734;7.086;2022-12-28T00:11:37;6.13;;;1.20;;
68800;SDS011;55784;50.734;7.086;2022-12-28T00:13:45;7.22;;;1.05;;
68800;SDS011;55784;50.734;7.086;2022-12-28T00:16:12;6.63;;;1.20;;
68800;SDS011;55784;50.734;7.086;2022-12-28T00:18:48;6.28;;;1.23;;
68800;SDS011;55784;50.734;7.086;2022-12-28T00:21:13;6.73;;;1.17;;
68800;SDS011;55784;50.734;7.086;2022-12-28T00:23:39;5.10;;;1.10;;
68800;SDS011;55784;50.734;7.086;2022-12-28T00:26:05;4.17;;;1.00;;
68800;SDS011;55784;50.734;7.086;2022-12-28T00:28:32;6.03;;;1.30;;
68800;SDS011;55784;50.734;7.086;2022-12-28T00:30:57;6.23;;;1.23;;
68800;SDS011;55784;50.734;7.086;2022-12-28T00:33:22;5.38;;;1.35;;
68800;SDS011;55784;50.734;7.086;2022-12-28T00:35:58;7.50;;;1.10;;
68800;SDS011;55784;50.734;7.086;2022-12-28T00:38:25;5.53;;;1.23;;
68800;SDS011;55784;50.734;7.086;2022-12-28T00:40:51;4.78;;;1.10;;
68800;SDS011;55784;50.734;7.086;2022-12-28T00:43:17;5.70;;;1.30;;
68800;SDS011;55784;50.734;7.086;2022-12-28T00:45:45;6.05;;;1.00;;
68800;SDS011;55784;50.734;7.086;2022-12-28T00:48:12;6.80;;;1.30;;
68800;SDS011;55784;50.734;7.086;2022-12-28T00:50:38;5.63;;;1.30;;
68800;SDS011;55784;50.734;7.086;2022-12-28T00:53:04;7.07;;;1.27;;
68800;SDS011;55784;50.734;7.086;2022-12-28T00:55:31;6.97;;;1.30;;
68800;SDS011;55784;50.734;7.086;2022-12-28T00:57:57;5.72;;;1.20;;
68800;SDS011;55784;50.734;7.086;2022-12-28T01:00:23;7.43;;;1.65;;
68800;SDS011;55784;50.734;7.086;2022-12-28T01:02:48;5.50;;;1.17;;
68800;SDS011;55784;50.734;7.086;2022-12-28T01:05:14;5.73;;;1.23;;
68800;SDS011;55784;50.734;7.086;2022-12-28T01:07:39;5.10;;;1.20;;
68800;SDS011;55784;50.734;7.086;2022-12-28T01:10:04;5.50;;;1.23;;
68800;SDS011;55784;50.734;7.086;2022-12-28T01:12:30;5.65;;;1.15;;
68800;SDS011;55784;50.734;7.086;2022-12-28T01:14:55;5.27;;;1.07;;
68800;SDS011;55784;50.734;7.086;2022-12-28T01:17:20;5.30;;;1.20;;
68800;SDS011;55784;50.734;7.086;2022-12-28T01:19:46;5.97;;;1.20;;
68800;SDS011;55784;50.734;7.086;2022-12-28T01:22:11;4.90;;;1.10;;
68800;SDS011;55784;50.734;7.086;2022-12-28T01:24:38;6.10;;;1.10;;
68800;SDS011;55784;50.734;7.086;2022-12-28T01:27:03;5.30;;;1.20;;
68800;SDS011;55784;50.734;7.086;2022-12-28T01:29:29;4.60;;;1.20;;
68800;SDS011;55784;50.734;7.086;2022-12-28T01:31:54;5.20;;;1.30;;
68800;SDS011;55784;50.734;7.086;2022-12-28T01:34:19;5.50;;;1.15;;
68800;SDS011;55784;50.734;7.086;2022-12-28T01:36:44;5.57;;;1.27;;
68800;SDS011;55784;50.734;7.086;2022-12-28T01:39:10;6.03;;;1.20;;
68800;SDS011;55784;50.734;7.086;2022-12-28T01:41:42;6.05;;;1.40;;
68800;SDS011;55784;50.734;7.086;2022-12-28T01:46:54;10.35;;;1.67;;
68800;SDS011;55784;50.734;7.086;2022-12-28T01:54:24;6.70;;;1.27;;
68800;SDS011;55784;50.734;7.086;2022-12-28T01:56:53;5.20;;;1.17;;
68800;SDS011;55784;50.734;7.086;2022-12-28T01:59:19;6.53;;;1.17;;
68800;SDS011;55784;50.734;7.086;2022-12-28T02:01:46;5.10;;;1.20;;
68800;SDS011;55784;50.734;7.086;2022-12-28T02:04:12;6.35;;;1.50;;
68800;SDS011;55784;50.734;7.086;2022-12-28T02:06:37;10.07;;;1.73;;
68800;SDS011;55784;50.734;7.086;2022-12-28T02:09:07;4.65;;;1.27;;
68800;SDS011;55784;50.734;7.086;2022-12-28T02:11:38;7.10;;;1.30;;
68800;SDS011;55784;50.734;7.086;2022-12-28T02:14:05;7.47;;;1.50;;
68800;SDS011;55784;50.734;7.086;2022-12-28T02:16:31;6.10;;;1.38;;
68800;SDS011;55784;50.734;7.086;2022-12-28T02:18:57;6.17;;;1.40;;
68800;SDS011;55784;50.734;7.086;2022-12-28T02:29:52;6.03;;;1.48;;
68800;SDS011;55784;50.734;7.086;2022-12-28T02:38:05;5.47;;;1.33;;
68800;SDS011;55784;50.734;7.086;2022-12-28T02:40:40;5.35;;;1.27;;
68800;SDS011;55784;50.734;7.086;2022-12-28T02:43:09;6.53;;;1.40;;
68800;SDS011;55784;50.734;7.086;2022-12-28T02:45:40;5.18;;;1.30;;
68800;SDS011;55784;50.734;7.086;2022-12-28T02:48:36;5.35;;;1.40;;
68800;SDS011;55784;50.734;7.086;2022-12-28T02:57:29;5.93;;;1.20;;
68800;SDS011;55784;50.734;7.086;2022-12-28T03:00:00;5.07;;;1.30;;
68800;SDS011;55784;50.734;7.086;2022-12-28T03:08:06;5.35;;;1.27;;
68800;SDS011;55784;50.734;7.086;2022-12-28T03:10:45;5.35;;;1.25;;
68800;SDS011;55784;50.734;7.086;2022-12-28T03:16:09;5.20;;;1.10;;
68800;SDS011;55784;50.734;7.086;2022-12-28T03:18:39;5.45;;;1.20;;
68800;SDS011;55784;50.734;7.086;2022-12-28T03:21:25;4.55;;;1.20;;
68800;SDS011;55784;50.734;7.086;2022-12-28T03:24:13;5.15;;;1.33;;
68800;SDS011;55784;50.734;7.086;2022-12-28T03:26:59;5.05;;;1.30;;
68800;SDS011;55784;50.734;7.086;2022-12-28T03:29:50;6.28;;;1.30;;
68800;SDS011;55784;50.734;7.086;2022-12-28T03:32:38;5.72;;;1.20;;
68800;SDS011;55784;50.734;7.086;2022-12-28T03:35:04;5.50;;;1.10;;
68800;SDS011;55784;50.734;7.086;2022-12-28T03:37:31;6.25;;;1.38;;
68800;SDS011;55784;50.734;7.086;2022-12-28T03:42:39;5.13;;;1.30;;
68800;SDS011;55784;50.734;7.086;2022-12-28T03:45:43;5.40;;;1.30;;
68800;SDS011;55784;50.734;7.086;2022-12-28T03:48:15;4.90;;;1.20;;
68800;SDS011;55784;50.734;7.086;2022-12-28T03:50:42;5.50;;;1.23;;
68800;SDS011;55784;50.734;7.086;2022-12-28T03:53:09;5.07;;;1.00;;
68800;SDS011;55784;50.734;7.086;2022-12-28T03:55:35;6.10;;;1.40;;
68800;SDS011;55784;50.734;7.086;2022-12-28T03:58:04;6.50;;;1.70;;
68800;SDS011;55784;50.734;7.086;2022-12-28T04:00:31;4.45;;;1.10;;
68800;SDS011;55784;50.734;7.086;2022-12-28T04:02:56;4.82;;;1.25;;
68800;SDS011;55784;50.734;7.086;2022-12-28T04:05:21;4.53;;;0.90;;
68800;SDS011;55784;50.734;7.086;2022-12-28T04:07:47;5.03;;;1.00;;
68800;SDS011;55784;50.734;7.086;2022-12-28T04:10:13;5.47;;;1.15;;
68800;SDS011;55784;50.734;7.086;2022-12-28T04:12:38;6.33;;;1.10;;
68800;SDS011;55784;50.734;7.086;2022-12-28T04:15:04;5.90;;;1.10;;
68800;SDS011;55784;50.734;7.086;2022-12-28T04:17:30;4.90;;;1.00;;
68800;SDS011;55784;50.734;7.086;2022-12-28T04:19:55;6.10;;;1.10;;
68800;SDS011;55784;50.734;7.086;2022-12-28T04:22:21;4.93;;;1.00;;
68800;SDS011;55784;50.734;7.086;2022-12-28T04:24:46;4.77;;;1.20;;
68800;SDS011;55784;50.734;7.086;2022-12-28T04:27:11;4.57;;;1.00;;
68800;SDS011;55784;50.734;7.086;2022-12-28T04:29:36;4.10;;;1.00;;
68800;SDS011;55784;50.734;7.086;2022-12-28T04:32:02;4.90;;;1.10;;
68800;SDS011;55784;50.734;7.086;2022-12-28T04:34:27;5.43;;;1.40;;
68800;SDS011;55784;50.734;7.086;2022-12-28T04:36:52;5.30;;;1.20;;
68800;SDS011;55784;50.734;7.086;2022-12-28T04:39:18;5.07;;;1.00;;
68800;SDS011;55784;50.734;7.086;2022-12-28T04:41:43;5.97;;;1.20;;
68800;SDS011;55784;50.734;7.086;2022-12-28T04:44:08;5.20;;;1.07;;
68800;SDS011;55784;50.734;7.086;2022-12-28T04:46:34;4.50;;;0.90;;
68800;SDS011;55784;50.734;7.086;2022-12-28T04:48:59;4.83;;;1.00;;
68800;SDS011;55784;50.734;7.086;2022-12-28T04:51:25;5.88;;;1.00;;
68800;SDS011;55784;50.734;7.086;2022-12-28T04:53:52;5.45;;;1.02;;
68800;SDS011;55784;50.734;7.086;2022-12-28T04:56:19;4.30;;;0.90;;
68800;SDS011;55784;50.734;7.086;2022-12-28T04:58:45;4.93;;;0.90;;
68800;SDS011;55784;50.734;7.086;2022-12-28T05:01:12;3.92;;;0.80;;
68800;SDS011;55784;50.734;7.086;2022-12-28T05:03:40;4.63;;;0.97;;
68800;SDS011;55784;50.734;7.086;2022-12-28T05:06:07;4.03;;;0.80;;
68800;SDS011;55784;50.734;7.086;2022-12-28T05:08:36;3.70;;;0.80;;
68800;SDS011;55784;50.734;7.086;2022-12-28T05:11:03;3.85;;;0.77;;
68800;SDS011;55784;50.734;7.086;2022-12-28T05:13:29;3.17;;;0.60;;
68800;SDS011;55784;50.734;7.086;2022-12-28T05:15:59;3.40;;;0.70;;
68800;SDS011;55784;50.734;7.086;2022-12-28T05:18:26;3.30;;;0.65;;
68800;SDS011;55784;50.734;7.086;2022-12-28T05:20:57;3.30;;;0.70;;
68800;SDS011;55784;50.734;7.086;2022-12-28T05:23:27;4.25;;;0.80;;
68800;SDS011;55784;50.734;7.086;2022-12-28T05:25:53;3.90;;;0.70;;
68800;SDS011;55784;50.734;7.086;2022-12-28T05:28:19;4.30;;;1.10;;
68800;SDS011;55784;50.734;7.086;2022-12-28T05:30:44;3.50;;;0.83;;
68800;SDS011;55784;50.734;7.086;2022-12-28T05:33:09;4.27;;;0.70;;
68800;SDS011;55784;50.734;7.086;2022-12-28T05:35:35;3.90;;;0.70;;
68800;SDS011;55784;50.734;7.086;2022-12-28T05:38:00;5.27;;;1.20;;
68800;SDS011;55784;50.734;7.086;2022-12-28T05:40:25;3.28;;;0.63;;
68800;SDS011;55784;50.734;7.086;2022-12-28T05:42:51;6.10;;;1.40;;
68800;SDS011;55784;50.734;7.086;2022-12-28T05:45:16;3.60;;;0.73;;
68800;SDS011;55784;50.734;7.086;2022-12-28T05:47:41;3.10;;;0.67;;
68800;SDS011;55784;50.734;7.086;2022-12-28T05:50:07;3.20;;;0.70;;
68800;SDS011;55784;50.734;7.086;2022-12-28T05:52:32;4.93;;;0.60;;
68800;SDS011;55784;50.734;7.086;2022-12-28T05:54:57;5.13;;;0.77;;
68800;SDS011;55784;50.734;7.086;2022-12-28T05:57:23;3.90;;;0.87;;
68800;SDS011;55784;50.734;7.086;2022-12-28T05:59:48;3.13;;;0.63;;
68800;SDS011;55784;50.734;7.086;2022-12-28T06:02:13;2.60;;;0.60;;
68800;SDS011;55784;50.734;7.086;2022-12-28T06:04:38;3.27;;;0.60;;
68800;SDS011;55784;50.734;7.086;2022-12-28T06:07:04;3.43;;;0.60;;
68800;SDS011;55784;50.734;7.086;2022-12-28T06:09:29;4.03;;;0.60;;
68800;SDS011;55784;50.734;7.086;2022-12-28T06:11:54;4.83;;;0.90;;
68800;SDS011;55784;50.734;7.086;2022-12-28T06:14:19;2.97;;;0.60;;
68800;SDS011;55784;50.734;7.086;2022-12-28T06:16:45;3.50;;;0.60;;
68800;SDS011;55784;50.734;7.086;2022-12-28T06:19:10;2.77;;;0.60;;
68800;SDS011;55784;50.734;7.086;2022-12-28T06:21:38;3.88;;;0.65;;
68800;SDS011;55784;50.734;7.086;2022-12-28T06:24:05;3.47;;;0.60;;
68800;SDS011;55784;50.734;7.086;2022-12-28T06:26:32;2.55;;;0.50;;
68800;SDS011;55784;50.734;7.086;2022-12-28T06:28:59;3.53;;;0.80;;
68800;SDS011;55784;50.734;7.086;2022-12-28T06:31:27;2.78;;;0.50;;
68800;SDS011;55784;50.734;7.086;2022-12-28T06:33:54;3.10;;;0.47;;
68800;SDS011;55784;50.734;7.086;2022-12-28T06:36:22;3.67;;;0.80;;
68800;SDS011;55784;50.734;7.086;2022-12-28T06:38:49;2.80;;;0.50;;
68800;SDS011;55784;50.734;7.086;2022-12-28T06:41:16;3.00;;;0.47;;
68800;SDS011;55784;50.734;7.086;2022-12-28T06:43:42;2.58;;;0.50;;
68800;SDS011;55784;50.734;7.086;2022-12-28T06:46:09;4.30;;;0.63;;
68800;SDS011;55784;50.734;7.086;2022-12-28T06:48:36;4.57;;;0.80;;
68800;SDS011;55784;50.734;7.086;2022-12-28T06:51:06;1.92;;;0.40;;
68800;SDS011;55784;50.734;7.086;2022-12-28T06:53:34;2.67;;;0.50;;
68800;SDS011;55784;50.734;7.086;2022-12-28T06:56:02;2.78;;;0.50;;
68800;SDS011;55784;50.734;7.086;2022-12-28T06:58:28;3.20;;;0.50;;
68800;SDS011;55784;50.734;7.086;2022-12-28T07:00:54;3.60;;;0.57;;
68800;SDS011;55784;50.734;7.086;2022-12-28T07:03:21;4.30;;;0.50;;
68800;SDS011;55784;50.734;7.086;2022-12-28T07:05:47;3.00;;;0.50;;
68800;SDS011;55784;50.734;7.086;2022-12-28T07:08:13;3.20;;;0.63;;
68800;SDS011;55784;50.734;7.086;2022-12-28T07:10:38;3.10;;;0.43;;
68800;SDS011;55784;50.734;7.086;2022-12-28T07:13:04;3.10;;;0.60;;
68800;SDS011;55784;50.734;7.086;2022-12-28T07:15:30;2.92;;;0.50;;
68800;SDS011;55784;50.734;7.086;2022-12-28T07:17:56;4.50;;;0.60;;
68800;SDS011;55784;50.734;7.086;2022-12-28T07:20:22;3.28;;;0.40;;
68800;SDS011;55784;50.734;7.086;2022-12-28T07:22:47;3.23;;;0.37;;
68800;SDS011;55784;50.734;7.086;2022-12-28T07:25:13;2.83;;;0.40;;
68800;SDS011;55784;50.734;7.086;2022-12-28T07:27:38;3.27;;;0.40;;
68800;SDS011;55784;50.734;7.086;2022-12-28T07:30:03;3.13;;;0.60;;
68800;SDS011;55784;50.734;7.086;2022-12-28T07:32:29;3.22;;;0.50;;
68800;SDS011;55784;50.734;7.086;2022-12-28T07:34:54;3.60;;;0.50;;
68800;SDS011;55784;50.734;7.086;2022-12-28T07:37:20;3.90;;;0.50;;
68800;SDS011;55784;50.734;7.086;2022-12-28T07:39:45;1.97;;;0.30;;
68800;SDS011;55784;50.734;7.086;2022-12-28T07:42:10;2.63;;;0.40;;
68800;SDS011;55784;50.734;7.086;2022-12-28T07:44:36;2.25;;;0.50;;
68800;SDS011;55784;50.734;7.086;2022-12-28T07:47:02;2.33;;;0.40;;
68800;SDS011;55784;50.734;7.086;2022-12-28T07:49:27;3.30;;;0.40;;
68800;SDS011;55784;50.734;7.086;2022-12-28T07:51:54;4.63;;;0.70;;
68800;SDS011;55784;50.734;7.086;2022-12-28T07:54:20;4.32;;;0.82;;
68800;SDS011;55784;50.734;7.086;2022-12-28T07:56:45;7.37;;;2.00;;
68800;SDS011;55784;50.734;7.086;2022-12-28T07:59:10;2.37;;;0.57;;
68800;SDS011;55784;50.734;7.086;2022-12-28T08:01:39;2.22;;;0.50;;
68800;SDS011;55784;50.734;7.086;2022-12-28T08:04:06;3.45;;;0.75;;
68800;SDS011;55784;50.734;7.086;2022-12-28T08:06:34;3.42;;;0.50;;
68800;SDS011;55784;50.734;7.086;2022-12-28T08:09:02;2.78;;;0.60;;
68800;SDS011;55784;50.734;7.086;2022-12-28T08:11:29;3.88;;;0.90;;
68800;SDS011;55784;50.734;7.086;2022-12-28T08:13:57;2.80;;;0.50;;
68800;SDS011;55784;50.734;7.086;2022-12-28T08:16:24;3.35;;;0.60;;
68800;SDS011;55784;50.734;7.086;2022-12-28T08:18:51;5.07;;;0.90;;
68800;SDS011;55784;50.734;7.086;2022-12-28T08:21:21;3.25;;;0.60;;
68800;SDS011;55784;50.734;7.086;2022-12-28T08:23:50;4.15;;;0.80;;
68800;SDS011;55784;50.734;7.086;2022-12-28T08:26:17;4.45;;;0.70;;
68800;SDS011;55784;50.734;7.086;2022-12-28T08:28:45;3.50;;;0.60;;
68800;SDS011;55784;50.734;7.086;2022-12-28T08:31:12;3.85;;;0.70;;
68800;SDS011;55784;50.734;7.086;2022-12-28T08:33:48;4.32;;;0.65;;
68800;SDS011;55784;50.734;7.086;2022-12-28T08:36:14;4.75;;;0.90;;
68800;SDS011;55784;50.734;7.086;2022-12-28T08:38:40;4.50;;;1.10;;
68800;SDS011;55784;50.734;7.086;2022-12-28T08:41:07;3.88;;;0.80;;
68800;SDS011;55784;50.734;7.086;2022-12-28T08:43:35;4.63;;;0.70;;
68800;SDS011;55784;50.734;7.086;2022-12-28T08:48:27;4.80;;;0.80;;
68800;SDS011;55784;50.734;7.086;2022-12-28T08:50:53;4.50;;;0.70;;
68800;SDS011;55784;50.734;7.086;2022-12-28T08:53:19;4.10;;;0.77;;
68800;SDS011;55784;50.734;7.086;2022-12-28T08:55:48;3.92;;;0.80;;
68800;SDS011;55784;50.734;7.086;2022-12-28T08:58:13;4.43;;;0.60;;
68800;SDS011;55784;50.734;7.086;2022-12-28T09:00:39;4.40;;;0.70;;
68800;SDS011;55784;50.734;7.086;2022-12-28T09:03:04;5.13;;;0.67;;
68800;SDS011;55784;50.734;7.086;2022-12-28T09:05:29;4.93;;;0.97;;
68800;SDS011;55784;50.734;7.086;2022-12-28T09:07:55;3.08;;;0.70;;
68800;SDS011;55784;50.734;7.086;2022-12-28T09:10:20;4.32;;;0.77;;
68800;SDS011;55784;50.734;7.086;2022-12-28T09:12:45;4.10;;;0.80;;
68800;SDS011;55784;50.734;7.086;2022-12-28T09:15:10;5.53;;;0.70;;
68800;SDS011;55784;50.734;7.086;2022-12-28T09:17:36;3.17;;;0.60;;
68800;SDS011;55784;50.734;7.086;2022-12-28T09:20:01;5.13;;;0.83;;
68800;SDS011;55784;50.734;7.086;2022-12-28T09:22:26;3.87;;;0.70;;
68800;SDS011;55784;50.734;7.086;2022-12-28T09:24:52;3.40;;;0.70;;
68800;SDS011;55784;50.734;7.086;2022-12-28T09:27:17;4.40;;;0.60;;
68800;SDS011;55784;50.734;7.086;2022-12-28T09:29:42;3.30;;;0.63;;
68800;SDS011;55784;50.734;7.086;2022-12-28T09:32:08;3.25;;;0.55;;
68800;SDS011;55784;50.734;7.086;2022-12-28T09:34:33;2.93;;;0.50;;
68800;SDS011;55784;50.734;7.086;2022-12-28T09:37:00;3.38;;;0.60;;
68800;SDS011;55784;50.734;7.086;2022-12-28T09:39:26;4.20;;;0.60;;
68800;SDS011;55784;50.734;7.086;2022-12-28T09:44:49;6.32;;;0.80;;
68800;SDS011;55784;50.734;7.086;2022-12-28T09:55:52;2.95;;;0.60;;
68800;SDS011;55784;50.734;7.086;2022-12-28T09:58:23;4.15;;;0.70;;
68800;SDS011;55784;50.734;7.086;2022-12-28T10:00:50;2.87;;;0.40;;
68800;SDS011;55784;50.734;7.086;2022-12-28T10:06:01;2.92;;;0.70;;
68800;SDS011;55784;50.734;7.086;2022-12-28T10:08:28;3.33;;;0.70;;
68800;SDS011;55784;50.734;7.086;2022-12-28T10:10:56;3.03;;;0.63;;
68800;SDS011;55784;50.734;7.086;2022-12-28T10:16:49;3.85;;;0.68;;
68800;SDS011;55784;50.734;7.086;2022-12-28T10:25:51;3.60;;;0.60;;
68800;SDS011;55784;50.734;7.086;2022-12-28T10:28:50;3.95;;;0.73;;
68800;SDS011;55784;50.734;7.086;2022-12-28T10:31:34;3.03;;;0.70;;
68800;SDS011;55784;50.734;7.086;2022-12-28T10:34:12;4.35;;;0.90;;
68800;SDS011;55784;50.734;7.086;2022-12-28T10:39:35;2.90;;;0.70;;
68800;SDS011;55784;50.734;7.086;2022-12-28T10:42:22;4.50;;;0.90;;
68800;SDS011;55784;50.734;7.086;2022-12-28T10:45:20;6.18;;;1.00;;
68800;SDS011;55784;50.734;7.086;2022-12-28T10:48:23;5.30;;;0.82;;
68800;SDS011;55784;50.734;7.086;2022-12-28T10:51:31;3.83;;;0.82;;
68800;SDS011;55784;50.734;7.086;2022-12-28T10:54:35;4.23;;;1.00;;
68800;SDS011;55784;50.734;7.086;2022-12-28T10:57:17;4.00;;;0.73;;
68800;SDS011;55784;50.734;7.086;2022-12-28T10:59:47;4.43;;;1.02;;
68800;SDS011;55784;50.734;7.086;2022-12-28T11:02:31;4.95;;;0.93;;
68800;SDS011;55784;50.734;7.086;2022-12-28T11:05:19;4.45;;;0.90;;
68800;SDS011;55784;50.734;7.086;2022-12-28T11:08:12;5.00;;;1.10;;
68800;SDS011;55784;50.734;7.086;2022-12-28T11:13:32;5.55;;;1.10;;
68800;SDS011;55784;50.734;7.086;2022-12-28T11:24:44;6.25;;;0.95;;
68800;SDS011;55784;50.734;7.086;2022-12-28T11:27:11;5.03;;;0.70;;
68800;SDS011;55784;50.734;7.086;2022-12-28T11:29:43;4.53;;;0.80;;
68800;SDS011;55784;50.734;7.086;2022-12-28T11:32:13;5.32;;;1.00;;
68800;SDS011;55784;50.734;7.086;2022-12-28T11:34:44;4.47;;;0.85;;
68800;SDS011;55784;50.734;7.086;2022-12-28T11:37:12;9.27;;;1.20;;
68800;SDS011;55784;50.734;7.086;2022-12-28T11:39:44;5.22;;;1.00;;
68800;SDS011;55784;50.734;7.086;2022-12-28T11:42:50;3.88;;;0.77;;
68800;SDS011;55784;50.734;7.086;2022-12-28T11:45:03;3.25;;;0.70;;
68800;SDS011;55784;50.734;7.086;2022-12-28T11:47:31;4.33;;;1.03;;
68800;SDS011;55784;50.734;7.086;2022-12-28T11:53:22;4.00;;;1.00;;
68800;SDS011;55784;50.734;7.086;2022-12-28T11:56:13;4.88;;;0.70;;
68800;SDS011;55784;50.734;7.086;2022-12-28T12:01:08;4.53;;;0.80;;
68800;SDS011;55784;50.734;7.086;2022-12-28T12:11:50;3.78;;;0.70;;
68800;SDS011;55784;50.734;7.086;2022-12-28T12:14:23;4.30;;;0.70;;
68800;SDS011;55784;50.734;7.086;2022-12-28T12:16:58;4.10;;;0.68;;
68800;SDS011;55784;50.734;7.086;2022-12-28T12:19:28;6.18;;;1.27;;
68800;SDS011;55784;50.734;7.086;2022-12-28T12:22:01;5.03;;;0.90;;
68800;SDS011;55784;50.734;7.086;2022-12-28T12:24:40;5.55;;;0.90;;
68800;SDS011;55784;50.734;7.086;2022-12-28T12:27:19;5.60;;;1.08;;
68800;SDS011;55784;50.734;7.086;2022-12-28T12:29:59;3.08;;;0.63;;
68800;SDS011;55784;50.734;7.086;2022-12-28T12:35:14;2.83;;;0.73;;
68800;SDS011;55784;50.734;7.086;2022-12-28T12:43:42;5.60;;;0.90;;
68800;SDS011;55784;50.734;7.086;2022-12-28T12:46:50;4.10;;;0.88;;
68800;SDS011;55784;50.734;7.086;2022-12-28T12:55:37;3.95;;;0.70;;
68800;SDS011;55784;50.734;7.086;2022-12-28T13:03:48;3.83;;;0.60;;
68800;SDS011;55784;50.734;7.086;2022-12-28T13:06:15;4.72;;;0.80;;
68800;SDS011;55784;50.734;7.086;2022-12-28T13:08:46;5.07;;;0.95;;
68800;SDS011;55784;50.734;7.086;2022-12-28T13:11:14;5.97;;;1.20;;
68800;SDS011;55784;50.734;7.086;2022-12-28T13:13:43;5.25;;;0.90;;
68800;SDS011;55784;50.734;7.086;2022-12-28T13:16:13;3.30;;;0.60;;
68800;SDS011;55784;50.734;7.086;2022-12-28T13:18:50;4.47;;;0.80;;
68800;SDS011;55784;50.734;7.086;2022-12-28T13:21:40;4.20;;;0.60;;
68800;SDS011;55784;50.734;7.086;2022-12-28T13:24:19;4.68;;;0.90;;
68800;SDS011;55784;50.734;7.086;2022-12-28T13:26:44;5.90;;;1.05;;
68800;SDS011;55784;50.734;7.086;2022-12-28T13:29:12;5.57;;;1.10;;
68800;SDS011;55784;50.734;7.086;2022-12-28T13:31:42;4.88;;;0.82;;
68800;SDS011;55784;50.734;7.086;2022-12-28T13:34:18;3.58;;;0.70;;
68800;SDS011;55784;50.734;7.086;2022-12-28T13:37:13;3.75;;;0.68;;
68800;SDS011;55784;50.734;7.086;2022-12-28T13:39:38;5.20;;;1.20;;
68800;SDS011;55784;50.734;7.086;2022-12-28T13:42:05;4.27;;;1.00;;
68800;SDS011;55784;50.734;7.086;2022-12-28T13:49:51;4.85;;;0.85;;
68800;SDS011;55784;50.734;7.086;2022-12-28T13:52:22;5.53;;;0.90;;
68800;SDS011;55784;50.734;7.086;2022-12-28T13:54:55;5.53;;;0.80;;
68800;SDS011;55784;50.734;7.086;2022-12-28T13:57:23;3.90;;;0.80;;
68800;SDS011;55784;50.734;7.086;2022-12-28T13:59:52;5.00;;;0.90;;
68800;SDS011;55784;50.734;7.086;2022-12-28T14:02:19;6.28;;;1.00;;
68800;SDS011;55784;50.734;7.086;2022-12-28T14:04:47;3.10;;;0.77;;
68800;SDS011;55784;50.734;7.086;2022-12-28T14:07:15;4.55;;;0.90;;
68800;SDS011;55784;50.734;7.086;2022-12-28T14:09:43;5.55;;;1.15;;
68800;SDS011;55784;50.734;7.086;2022-12-28T14:12:10;4.38;;;0.80;;
68800;SDS011;55784;50.734;7.086;2022-12-28T14:14:37;4.40;;;0.90;;
68800;SDS011;55784;50.734;7.086;2022-12-28T14:17:03;6.25;;;0.93;;
68800;SDS011;55784;50.734;7.086;2022-12-28T14:19:30;4.05;;;0.82;;
68800;SDS011;55784;50.734;7.086;2022-12-28T14:21:56;6.07;;;1.57;;
68800;SDS011;55784;50.734;7.086;2022-12-28T14:24:21;4.93;;;1.10;;
68800;SDS011;55784;50.734;7.086;2022-12-28T14:29:32;4.07;;;1.00;;
68800;SDS011;55784;50.734;7.086;2022-12-28T14:31:59;4.47;;;1.30;;
68800;SDS011;55784;50.734;7.086;2022-12-28T14:34:27;4.35;;;1.13;;
68800;SDS011;55784;50.734;7.086;2022-12-28T14:36:55;6.25;;;1.50;;
68800;SDS011;55784;50.734;7.086;2022-12-28T14:41:52;6.07;;;1.10;;
68800;SDS011;55784;50.734;7.086;2022-12-28T14:44:26;3.80;;;0.80;;
68800;SDS011;55784;50.734;7.086;2022-12-28T14:46:54;4.07;;;0.95;;
68800;SDS011;55784;50.734;7.086;2022-12-28T14:51:48;5.45;;;1.02;;
68800;SDS011;55784;50.734;7.086;2022-12-28T14:54:23;4.82;;;0.90;;
68800;SDS011;55784;50.734;7.086;2022-12-28T14:56:54;3.80;;;0.90;;
68800;SDS011;55784;50.734;7.086;2022-12-28T14:59:26;4.70;;;1.00;;
68800;SDS011;55784;50.734;7.086;2022-12-28T15:01:56;5.13;;;1.05;;
68800;SDS011;55784;50.734;7.086;2022-12-28T15:04:43;5.07;;;1.30;;
68800;SDS011;55784;50.734;7.086;2022-12-28T15:07:09;5.00;;;1.10;;
68800;SDS011;55784;50.734;7.086;2022-12-28T15:09:36;4.85;;;1.00;;
68800;SDS011;55784;50.734;7.086;2022-12-28T15:12:11;4.55;;;1.00;;
68800;SDS011;55784;50.734;7.086;2022-12-28T15:14:40;4.30;;;0.90;;
68800;SDS011;55784;50.734;7.086;2022-12-28T15:17:06;4.25;;;1.00;;
68800;SDS011;55784;50.734;7.086;2022-12-28T15:19:33;5.47;;;1.60;;
68800;SDS011;55784;50.734;7.086;2022-12-28T15:21:58;5.05;;;0.88;;
68800;SDS011;55784;50.734;7.086;2022-12-28T15:24:23;5.13;;;1.10;;
68800;SDS011;55784;50.734;7.086;2022-12-28T15:26:49;4.00;;;0.90;;
68800;SDS011;55784;50.734;7.086;2022-12-28T15:29:14;4.00;;;0.97;;
68800;SDS011;55784;50.734;7.086;2022-12-28T15:31:40;5.23;;;1.10;;
68800;SDS011;55784;50.734;7.086;2022-12-28T15:34:05;4.13;;;0.90;;
68800;SDS011;55784;50.734;7.086;2022-12-28T15:36:31;5.30;;;1.00;;
68800;SDS011;55784;50.734;7.086;2022-12-28T15:38:56;4.63;;;0.90;;
68800;SDS011;55784;50.734;7.086;2022-12-28T15:41:21;5.07;;;1.17;;
68800;SDS011;55784;50.734;7.086;2022-12-28T15:44:06;4.65;;;0.90;;
68800;SDS011;55784;50.734;7.086;2022-12-28T15:46:34;4.13;;;0.90;;
68800;SDS011;55784;50.734;7.086;2022-12-28T15:49:00;3.38;;;0.77;;
68800;SDS011;55784;50.734;7.086;2022-12-28T15:51:26;4.15;;;1.10;;
68800;SDS011;55784;50.734;7.086;2022-12-28T15:53:55;4.68;;;1.00;;
68800;SDS011;55784;50.734;7.086;2022-12-28T15:58:59;5.25;;;1.20;;
68800;SDS011;55784;50.734;7.086;2022-12-28T16:01:27;3.25;;;1.00;;
68800;SDS011;55784;50.734;7.086;2022-12-28T16:03:55;4.33;;;0.80;;
68800;SDS011;55784;50.734;7.086;2022-12-28T16:06:22;3.20;;;0.90;;
68800;SDS011;55784;50.734;7.086;2022-12-28T16:08:51;3.80;;;0.80;;
68800;SDS011;55784;50.734;7.086;2022-12-28T16:11:18;4.80;;;0.90;;
68800;SDS011;55784;50.734;7.086;2022-12-28T16:13:49;3.28;;;0.80;;
68800;SDS011;55784;50.734;7.086;2022-12-28T16:16:15;4.87;;;0.90;;
68800;SDS011;55784;50.734;7.086;2022-12-28T16:18:43;4.32;;;1.00;;
68800;SDS011;55784;50.734;7.086;2022-12-28T16:21:09;4.63;;;0.90;;
68800;SDS011;55784;50.734;7.086;2022-12-28T16:23:36;5.10;;;0.90;;
68800;SDS011;55784;50.734;7.086;2022-12-28T16:26:07;4.38;;;1.02;;
68800;SDS011;55784;50.734;7.086;2022-12-28T16:28:36;4.38;;;0.80;;
68800;SDS011;55784;50.734;7.086;2022-12-28T16:31:06;5.83;;;1.07;;
68800;SDS011;55784;50.734;7.086;2022-12-28T16:33:32;3.83;;;0.90;;
68800;SDS011;55784;50.734;7.086;2022-12-28T16:36:09;4.65;;;0.98;;
68800;SDS011;55784;50.734;7.086;2022-12-28T16:38:36;5.28;;;1.00;;
68800;SDS011;55784;50.734;7.086;2022-12-28T16:43:36;3.95;;;0.80;;
68800;SDS011;55784;50.734;7.086;2022-12-28T16:46:12;7.13;;;2.40;;
68800;SDS011;55784;50.734;7.086;2022-12-28T16:48:53;4.70;;;0.97;;
68800;SDS011;55784;50.734;7.086;2022-12-28T17:02:08;4.95;;;0.90;;
68800;SDS011;55784;50.734;7.086;2022-12-28T17:05:26;5.65;;;1.77;;
68800;SDS011;55784;50.734;7.086;2022-12-28T17:39:40;4.40;;;1.17;;
68800;SDS011;55784;50.734;7.086;2022-12-28T17:46:24;4.30;;;1.00;;
68800;SDS011;55784;50.734;7.086;2022-12-28T17:52:40;4.65;;;1.20;;
68800;SDS011;55784;50.734;7.086;2022-12-28T17:55:49;4.95;;;1.20;;
68800;SDS011;55784;50.734;7.086;2022-12-28T17:58:39;3.50;;;0.82;;
68800;SDS011;55784;50.734;7.086;2022-12-28T18:01:41;4.25;;;1.00;;
68800;SDS011;55784;50.734;7.086;2022-12-28T18:04:48;3.73;;;0.90;;
68800;SDS011;55784;50.734;7.086;2022-12-28T18:07:43;5.55;;;1.20;;